Aviation Digital Data Service (ADDS)

Output produced by TAFs form (0315 UTC 22 April 2018)
found at http://aviationweather.gov/adds/tafs/
 
EGPF 220250Z AUTO 28003KT 9999 NCD 06/04 Q1005
TAF EGPF 212257Z 2200/2224 VRB03KT 9999 FEW030 
     TEMPO 2208/2224 6000 RA BKN012 
     BECMG 2209/2212 23010KT 
     PROB30 
     TEMPO 2212/2214 3000 +RA BKN008